createdAt,value
2017-08-08T00:02:08.540Z,4.43
2017-08-08T00:04:37.425Z,4.20
2017-08-08T00:07:06.305Z,4.00
2017-08-08T00:09:35.200Z,4.53
2017-08-08T00:12:04.084Z,4.30
2017-08-08T00:14:32.974Z,3.67
2017-08-08T00:17:01.847Z,4.30
2017-08-08T00:19:30.730Z,4.30
2017-08-08T00:21:59.594Z,4.40
2017-08-08T00:24:28.478Z,4.60
2017-08-08T00:26:57.362Z,4.27
2017-08-08T00:32:01.463Z,4.07
2017-08-08T00:34:30.355Z,4.47
2017-08-08T00:36:59.217Z,4.10
2017-08-08T00:39:28.115Z,3.70
2017-08-08T00:41:57.000Z,4.57
2017-08-08T00:44:25.886Z,4.20
2017-08-08T00:46:54.759Z,3.97
2017-08-08T00:49:23.650Z,4.30
2017-08-08T00:51:52.513Z,4.00
2017-08-08T00:54:21.418Z,4.17
2017-08-08T00:56:50.303Z,4.73
2017-08-08T00:59:19.211Z,3.93
2017-08-08T01:01:48.114Z,4.63
2017-08-08T01:04:17.001Z,4.70
2017-08-08T01:06:45.899Z,4.00
2017-08-08T01:09:14.774Z,4.00
2017-08-08T01:11:43.663Z,4.80
2017-08-08T01:14:12.529Z,4.20
2017-08-08T01:16:41.418Z,4.10
2017-08-08T01:19:10.283Z,4.30
2017-08-08T01:21:39.184Z,5.00
2017-08-08T01:24:08.053Z,4.17
2017-08-08T01:26:36.952Z,4.60
2017-08-08T01:31:41.073Z,4.27
2017-08-08T01:34:09.941Z,3.77
2017-08-08T01:36:38.835Z,4.63
2017-08-08T01:39:07.712Z,4.33
2017-08-08T01:41:36.608Z,4.80
2017-08-08T01:44:05.483Z,4.47
2017-08-08T01:46:34.375Z,5.03
2017-08-08T01:49:03.260Z,4.20
2017-08-08T01:51:32.146Z,4.60
2017-08-08T01:54:01.019Z,4.80
2017-08-08T01:56:29.912Z,3.77
2017-08-08T01:58:58.792Z,4.60
2017-08-08T02:01:27.682Z,5.30
2017-08-08T02:03:56.553Z,4.67
2017-08-08T02:06:25.450Z,5.27
2017-08-08T02:08:54.323Z,5.13
2017-08-08T02:11:23.202Z,5.10
2017-08-08T02:13:52.091Z,4.40
2017-08-08T02:16:20.971Z,5.10
2017-08-08T02:18:49.867Z,4.50
2017-08-08T02:21:18.735Z,5.10
2017-08-08T02:23:47.629Z,5.10
2017-08-08T02:26:16.514Z,4.90
2017-08-08T02:28:45.409Z,4.90
2017-08-08T02:31:14.287Z,4.73
2017-08-08T02:33:43.177Z,5.10
2017-08-08T02:36:12.059Z,4.63
2017-08-08T02:38:40.947Z,4.43
2017-08-08T02:41:09.822Z,4.50
2017-08-08T02:43:38.715Z,5.20
2017-08-08T02:46:07.604Z,4.87
2017-08-08T02:48:36.512Z,4.80
2017-08-08T02:51:05.395Z,5.00
2017-08-08T02:53:34.296Z,4.70
2017-08-08T02:56:03.162Z,5.13
2017-08-08T02:58:32.048Z,5.10
2017-08-08T03:01:00.918Z,5.67
2017-08-08T03:03:29.815Z,5.80
2017-08-08T03:05:58.686Z,4.80
2017-08-08T03:08:27.570Z,5.60
2017-08-08T03:10:56.450Z,5.63
2017-08-08T03:13:25.334Z,5.23
2017-08-08T03:15:54.216Z,5.30
2017-08-08T03:18:23.148Z,5.33
2017-08-08T03:20:52.018Z,5.67
2017-08-08T03:23:20.925Z,5.93
2017-08-08T03:25:49.798Z,5.30
2017-08-08T03:28:18.666Z,6.03
2017-08-08T03:30:47.554Z,5.67
2017-08-08T03:33:16.428Z,5.40
2017-08-08T03:35:45.324Z,6.13
2017-08-08T03:38:14.193Z,5.83
2017-08-08T03:40:43.114Z,5.80
2017-08-08T03:43:11.985Z,6.10
2017-08-08T03:45:40.880Z,6.20
2017-08-08T03:48:09.750Z,6.63
2017-08-08T03:50:38.647Z,6.57
2017-08-08T03:53:07.535Z,5.97
2017-08-08T03:55:36.431Z,6.17
2017-08-08T03:58:05.314Z,6.00
2017-08-08T04:00:34.215Z,5.93
2017-08-08T04:03:03.108Z,5.67
2017-08-08T04:05:32.004Z,6.03
2017-08-08T04:08:00.892Z,6.20
2017-08-08T04:10:29.794Z,5.70
2017-08-08T04:12:58.662Z,5.83
2017-08-08T04:15:27.549Z,6.00
2017-08-08T04:17:56.413Z,6.10
2017-08-08T04:20:25.298Z,6.30
2017-08-08T04:22:54.188Z,6.10
2017-08-08T04:25:23.095Z,5.93
2017-08-08T04:27:51.970Z,5.60
2017-08-08T04:30:20.857Z,5.47
2017-08-08T04:32:49.724Z,5.90
2017-08-08T04:35:18.623Z,6.57
2017-08-08T04:37:47.486Z,6.50
2017-08-08T04:40:16.370Z,6.73
2017-08-08T04:42:45.236Z,6.53
2017-08-08T04:45:14.117Z,6.43
2017-08-08T04:47:43.034Z,6.77
2017-08-08T04:50:11.931Z,6.70
2017-08-08T04:52:40.819Z,6.53
2017-08-08T04:55:09.718Z,6.83
2017-08-08T04:57:38.596Z,5.93
2017-08-08T05:00:07.461Z,6.97
2017-08-08T05:02:36.365Z,7.03
2017-08-08T05:05:05.229Z,6.83
2017-08-08T05:07:34.112Z,6.17
2017-08-08T05:10:03.070Z,7.07
2017-08-08T05:12:31.953Z,7.03
2017-08-08T05:15:00.833Z,6.00
2017-08-08T05:17:29.728Z,6.87
2017-08-08T05:19:58.603Z,6.87
2017-08-08T05:22:27.504Z,7.10
2017-08-08T05:24:56.365Z,7.33
2017-08-08T05:27:25.250Z,6.70
2017-08-08T05:29:54.128Z,6.90
2017-08-08T05:32:23.164Z,6.70
2017-08-08T05:34:52.048Z,7.53
2017-08-08T05:37:20.938Z,7.53
2017-08-08T05:39:49.819Z,6.80
2017-08-08T05:42:18.706Z,6.40
2017-08-08T05:44:47.599Z,6.43
2017-08-08T05:47:16.508Z,7.00
2017-08-08T05:49:45.369Z,6.90
2017-08-08T05:52:14.265Z,6.20
2017-08-08T05:54:43.154Z,7.10
2017-08-08T05:57:12.044Z,5.50
2017-08-08T05:59:40.918Z,6.43
2017-08-08T06:02:09.796Z,6.30
2017-08-08T06:04:38.693Z,6.30
2017-08-08T06:07:07.552Z,5.97
2017-08-08T06:09:36.435Z,5.73
2017-08-08T06:12:05.328Z,5.83
2017-08-08T06:14:34.223Z,6.23
2017-08-08T06:17:03.095Z,5.50
2017-08-08T06:19:31.996Z,5.93
2017-08-08T06:22:00.875Z,6.10
2017-08-08T06:24:29.767Z,5.47
2017-08-08T06:26:58.635Z,5.67
2017-08-08T06:29:27.531Z,5.13
2017-08-08T06:31:56.405Z,4.10
2017-08-08T06:34:25.295Z,5.03
2017-08-08T06:36:54.170Z,3.70
2017-08-08T06:39:23.069Z,4.17
2017-08-08T06:41:51.947Z,3.87
2017-08-08T06:44:20.809Z,4.93
2017-08-08T06:46:49.711Z,3.87
2017-08-08T06:49:18.603Z,3.93
2017-08-08T06:51:47.499Z,3.47
2017-08-08T06:54:16.382Z,4.33
2017-08-08T06:56:45.291Z,3.87
2017-08-08T06:59:14.200Z,4.07
2017-08-08T07:01:43.089Z,3.63
2017-08-08T07:04:11.955Z,3.60
2017-08-08T07:06:40.846Z,2.87
2017-08-08T07:09:09.722Z,3.30
2017-08-08T07:11:38.616Z,2.93
2017-08-08T07:14:07.500Z,2.90
2017-08-08T07:16:36.407Z,2.97
2017-08-08T07:19:05.278Z,3.00
2017-08-08T07:21:34.186Z,2.60
2017-08-08T07:24:03.063Z,2.70
2017-08-08T07:26:31.949Z,3.47
2017-08-08T07:29:00.822Z,3.00
2017-08-08T07:31:29.715Z,3.10
2017-08-08T07:33:58.583Z,3.20
2017-08-08T07:36:27.481Z,3.50
2017-08-08T07:38:56.363Z,3.50
2017-08-08T07:41:25.570Z,3.27
2017-08-08T07:43:54.756Z,2.80
2017-08-08T07:46:23.953Z,2.57
2017-08-08T07:48:53.148Z,2.73
2017-08-08T07:51:22.341Z,3.00
2017-08-08T07:53:51.526Z,3.00
2017-08-08T07:56:20.712Z,3.10
2017-08-08T07:58:49.897Z,2.70
2017-08-08T08:01:19.075Z,2.73
2017-08-08T08:03:48.284Z,3.00
2017-08-08T08:06:17.467Z,2.60
2017-08-08T08:08:46.645Z,2.60
2017-08-08T08:11:15.827Z,2.97
2017-08-08T08:13:44.726Z,2.30
2017-08-08T08:16:13.629Z,2.90
2017-08-08T08:18:42.534Z,2.47
2017-08-08T08:21:11.421Z,2.20
2017-08-08T08:23:40.345Z,2.00
2017-08-08T08:26:09.218Z,2.13
2017-08-08T08:28:38.155Z,2.60
2017-08-08T08:31:07.049Z,2.80
2017-08-08T08:33:35.942Z,2.60
2017-08-08T08:36:04.837Z,2.13
2017-08-08T08:38:33.743Z,2.30
2017-08-08T08:41:02.619Z,2.10
2017-08-08T08:43:31.519Z,3.03
2017-08-08T08:46:00.411Z,1.80
2017-08-08T08:48:29.334Z,2.47
2017-08-08T08:50:58.240Z,1.83
2017-08-08T08:53:27.139Z,2.00
2017-08-08T08:55:56.053Z,2.00
2017-08-08T08:58:24.944Z,1.80
2017-08-08T09:00:53.841Z,2.60
2017-08-08T09:03:22.715Z,2.27
2017-08-08T09:05:51.606Z,2.20
2017-08-08T09:08:20.502Z,2.40
2017-08-08T09:10:49.394Z,2.20
2017-08-08T09:13:18.267Z,2.07
2017-08-08T09:15:47.168Z,2.25
2017-08-08T09:18:16.049Z,1.98
2017-08-08T09:20:44.961Z,2.67
2017-08-08T09:23:13.857Z,2.60
2017-08-08T09:25:42.754Z,3.37
2017-08-08T09:28:11.638Z,2.50
2017-08-08T09:30:40.545Z,2.87
2017-08-08T09:33:09.432Z,2.75
2017-08-08T09:35:38.334Z,2.62
2017-08-08T09:38:07.235Z,3.20
2017-08-08T09:40:36.149Z,2.75
2017-08-08T09:43:05.034Z,3.37
2017-08-08T09:45:33.926Z,2.72
2017-08-08T09:48:02.810Z,3.33
2017-08-08T09:50:31.702Z,2.83
2017-08-08T09:53:00.639Z,2.53
2017-08-08T09:55:29.531Z,3.25
2017-08-08T09:57:58.447Z,2.60
2017-08-08T10:00:27.333Z,3.10
2017-08-08T10:02:56.230Z,3.10
2017-08-08T10:05:25.103Z,3.20
2017-08-08T10:07:54.001Z,3.08
2017-08-08T10:10:22.951Z,3.10
2017-08-08T10:12:51.852Z,2.90
2017-08-08T10:15:20.780Z,3.37
2017-08-08T10:17:49.674Z,2.53
2017-08-08T10:20:18.585Z,2.95
2017-08-08T10:22:47.499Z,2.80
2017-08-08T10:25:16.365Z,3.00
2017-08-08T10:27:45.289Z,2.80
2017-08-08T10:30:14.178Z,2.92
2017-08-08T10:32:43.089Z,2.90
2017-08-08T10:35:11.958Z,3.15
2017-08-08T10:37:40.854Z,2.87
2017-08-08T10:40:09.738Z,3.33
2017-08-08T10:42:38.620Z,2.87
2017-08-08T10:45:07.554Z,3.40
2017-08-08T10:47:36.418Z,3.08
2017-08-08T10:50:05.315Z,2.90
2017-08-08T10:52:34.185Z,3.37
2017-08-08T10:55:03.075Z,3.10
2017-08-08T10:57:31.947Z,3.97
2017-08-08T11:00:00.833Z,3.40
2017-08-08T11:02:29.701Z,3.67
2017-08-08T11:04:58.598Z,3.58
2017-08-08T11:07:27.488Z,3.20
2017-08-08T11:09:56.380Z,3.58
2017-08-08T11:12:25.259Z,3.22
2017-08-08T11:14:54.155Z,3.80
2017-08-08T11:17:23.032Z,3.70
2017-08-08T11:19:51.921Z,3.00
2017-08-08T11:22:20.797Z,3.28
2017-08-08T11:24:49.702Z,3.40
2017-08-08T11:27:17.245Z,3.65
2017-08-08T11:29:46.134Z,3.17
2017-08-08T11:32:15.010Z,3.90
2017-08-08T11:34:43.695Z,3.10
2017-08-08T11:37:12.588Z,3.37
2017-08-08T11:39:41.474Z,3.92
2017-08-08T11:42:10.375Z,3.22
2017-08-08T11:44:39.265Z,3.45
2017-08-08T11:47:08.165Z,3.60
2017-08-08T11:49:37.048Z,3.42
2017-08-08T11:52:05.731Z,3.50
2017-08-08T11:54:34.612Z,3.17
2017-08-08T11:57:03.507Z,3.27
2017-08-08T11:59:31.039Z,3.57
2017-08-08T12:01:58.587Z,3.50
2017-08-08T12:04:26.123Z,3.17
2017-08-08T12:06:53.678Z,3.20
2017-08-08T12:09:22.634Z,3.27
2017-08-08T12:11:50.170Z,4.10
2017-08-08T12:14:19.038Z,3.58
2017-08-08T12:16:47.719Z,3.08
2017-08-08T12:19:15.252Z,3.83
2017-08-08T12:21:44.738Z,3.85
2017-08-08T12:24:12.263Z,4.10
2017-08-08T12:26:40.943Z,3.45
2017-08-08T12:29:09.831Z,3.87
2017-08-08T12:31:38.155Z,3.40
2017-08-08T12:34:07.031Z,3.70
2017-08-08T12:36:34.577Z,3.25
2017-08-08T12:39:02.117Z,2.97
2017-08-08T12:41:31.004Z,3.10
2017-08-08T12:43:59.915Z,3.67
2017-08-08T12:46:28.843Z,3.60
2017-08-08T12:48:58.606Z,3.15
2017-08-08T12:51:26.144Z,3.22
2017-08-08T12:53:53.686Z,3.30
2017-08-08T12:56:21.206Z,3.97
2017-08-08T12:58:48.750Z,3.17
2017-08-08T13:01:17.042Z,3.50
2017-08-08T13:03:44.589Z,3.00
2017-08-08T13:06:12.120Z,3.35
2017-08-08T13:08:39.662Z,3.20
2017-08-08T13:11:07.180Z,3.50
2017-08-08T13:13:34.732Z,2.92
2017-08-08T13:16:03.136Z,3.42
2017-08-08T13:18:30.677Z,3.72
2017-08-08T13:20:59.570Z,4.20
2017-08-08T13:23:27.111Z,3.20
2017-08-08T13:25:56.734Z,3.45
2017-08-08T13:28:25.420Z,3.17
2017-08-08T13:30:53.717Z,3.03
2017-08-08T13:33:21.267Z,3.22
2017-08-08T13:35:49.568Z,2.80
2017-08-08T13:38:18.454Z,3.58
2017-08-08T13:40:45.984Z,3.20
2017-08-08T13:43:14.302Z,3.87
2017-08-08T13:45:43.304Z,3.28
2017-08-08T13:48:12.195Z,3.50
2017-08-08T13:50:39.777Z,3.33
2017-08-08T13:53:07.298Z,3.45
2017-08-08T13:55:36.181Z,3.12
2017-08-08T13:58:05.059Z,3.58
2017-08-08T14:00:33.970Z,3.78
2017-08-08T14:03:01.498Z,3.47
2017-08-08T14:05:29.827Z,3.70
2017-08-08T14:07:58.693Z,3.20
2017-08-08T14:10:27.586Z,3.70
2017-08-08T14:12:56.468Z,4.12
2017-08-08T14:15:24.765Z,3.50
2017-08-08T14:17:53.639Z,2.80
2017-08-08T14:20:22.542Z,3.70
2017-08-08T14:22:51.413Z,4.00
2017-08-08T14:25:20.312Z,3.00
2017-08-08T14:27:49.203Z,3.67
2017-08-08T14:30:18.085Z,3.92
2017-08-08T14:32:46.972Z,4.00
2017-08-08T14:35:15.859Z,3.53
2017-08-08T14:37:44.735Z,3.12
2017-08-08T14:40:13.602Z,3.43
2017-08-08T14:42:42.589Z,3.35
2017-08-08T14:45:11.468Z,4.23
2017-08-08T14:47:39.019Z,3.87
2017-08-08T14:50:06.555Z,3.57
2017-08-08T14:52:34.118Z,3.87
2017-08-08T14:55:02.425Z,3.65
2017-08-08T14:57:31.330Z,3.50
2017-08-08T15:00:00.212Z,4.05
2017-08-08T15:02:29.107Z,3.10
2017-08-08T15:04:57.974Z,3.60
2017-08-08T15:07:26.871Z,3.20
2017-08-08T15:09:55.758Z,3.60
2017-08-08T15:12:24.660Z,3.80
2017-08-08T15:14:53.536Z,3.40
2017-08-08T15:17:21.871Z,3.30
2017-08-08T15:19:49.416Z,3.10
2017-08-08T15:22:16.957Z,3.70
2017-08-08T15:24:45.822Z,3.60
2017-08-08T15:27:14.711Z,4.03
2017-08-08T15:29:43.600Z,3.93
2017-08-08T15:32:12.505Z,3.53
2017-08-08T15:34:41.388Z,3.57
2017-08-08T15:37:10.278Z,3.73
2017-08-08T15:39:39.156Z,3.37
2017-08-08T15:42:08.049Z,3.80
2017-08-08T15:44:36.918Z,3.50
2017-08-08T15:47:05.820Z,4.20
2017-08-08T15:49:34.689Z,4.13
2017-08-08T15:52:03.569Z,3.90
2017-08-08T15:54:32.468Z,4.27
2017-08-08T15:57:01.342Z,3.53
2017-08-08T15:59:30.346Z,3.83
2017-08-08T16:01:59.241Z,4.03
2017-08-08T16:04:28.136Z,3.50
2017-08-08T16:06:57.007Z,3.90
2017-08-08T16:09:25.903Z,4.20
2017-08-08T16:11:54.770Z,4.00
2017-08-08T16:14:23.654Z,3.90
2017-08-08T16:16:52.538Z,3.80
2017-08-08T16:19:21.438Z,3.80
2017-08-08T16:21:50.313Z,4.73
2017-08-08T16:24:19.207Z,3.90
2017-08-08T16:26:48.088Z,3.80
2017-08-08T16:29:16.992Z,4.03
2017-08-08T16:31:45.861Z,4.20
2017-08-08T16:34:14.766Z,3.77
2017-08-08T16:36:43.642Z,4.33
2017-08-08T16:39:12.531Z,3.97
2017-08-08T16:41:41.410Z,4.00
2017-08-08T16:44:10.292Z,3.70
2017-08-08T16:46:39.187Z,4.20
2017-08-08T16:49:08.065Z,4.20
2017-08-08T16:51:36.967Z,4.10
2017-08-08T16:54:05.834Z,3.70
2017-08-08T16:56:34.739Z,3.90
2017-08-08T16:59:03.601Z,3.57
2017-08-08T17:01:32.501Z,3.80
2017-08-08T17:04:01.627Z,4.07
2017-08-08T17:06:30.533Z,4.03
2017-08-08T17:08:59.429Z,4.20
2017-08-08T17:11:28.336Z,3.77
2017-08-08T17:13:57.205Z,4.80
2017-08-08T17:16:26.095Z,4.23
2017-08-08T17:18:54.970Z,3.70
2017-08-08T17:21:23.900Z,4.77
2017-08-08T17:23:52.774Z,4.43
2017-08-08T17:26:21.683Z,4.60
2017-08-08T17:28:50.560Z,4.27
2017-08-08T17:31:19.458Z,4.40
2017-08-08T17:33:48.352Z,4.50
2017-08-08T17:36:17.242Z,4.40
2017-08-08T17:38:46.123Z,4.40
2017-08-08T17:41:15.011Z,4.17
2017-08-08T17:43:43.924Z,4.30
2017-08-08T17:46:12.797Z,4.13
2017-08-08T17:48:41.735Z,3.60
2017-08-08T17:51:10.642Z,4.13
2017-08-08T17:53:39.544Z,4.10
2017-08-08T17:56:08.446Z,4.10
2017-08-08T17:58:37.341Z,4.00
2017-08-08T18:01:06.206Z,4.40
2017-08-08T18:03:35.104Z,4.30
2017-08-08T18:06:03.983Z,3.80
2017-08-08T18:08:32.888Z,3.73
2017-08-08T18:11:01.773Z,4.13
2017-08-08T18:13:30.679Z,4.40
2017-08-08T18:15:59.558Z,4.47
2017-08-08T18:18:28.449Z,4.37
2017-08-08T18:20:57.323Z,4.13
2017-08-08T18:23:26.235Z,4.60
2017-08-08T18:25:55.122Z,4.80
2017-08-08T18:28:24.023Z,4.90
2017-08-08T18:30:52.897Z,5.10
2017-08-08T18:33:21.794Z,4.37
2017-08-08T18:35:50.661Z,4.83
2017-08-08T18:38:19.555Z,4.20
2017-08-08T18:40:48.440Z,4.70
2017-08-08T18:43:17.326Z,4.80
2017-08-08T18:45:46.212Z,3.90
2017-08-08T18:48:15.110Z,4.07
2017-08-08T18:50:43.981Z,4.40
2017-08-08T18:53:12.883Z,4.30
2017-08-08T18:55:41.749Z,4.10
2017-08-08T18:58:10.656Z,5.53
2017-08-08T19:00:39.544Z,4.27
2017-08-08T19:03:08.425Z,4.53
2017-08-08T19:05:37.329Z,4.23
2017-08-08T19:08:06.206Z,4.63
2017-08-08T19:10:35.091Z,4.80
2017-08-08T19:13:03.969Z,4.17
2017-08-08T19:15:32.857Z,4.10
2017-08-08T19:18:01.729Z,4.47
2017-08-08T19:20:30.624Z,4.70
2017-08-08T19:22:59.507Z,4.20
2017-08-08T19:25:28.398Z,4.83
2017-08-08T19:27:57.275Z,4.27
2017-08-08T19:30:26.171Z,5.57
2017-08-08T19:32:55.051Z,4.90
2017-08-08T19:35:23.952Z,4.37
2017-08-08T19:37:52.828Z,4.87
2017-08-08T19:40:21.728Z,4.93
2017-08-08T19:42:50.602Z,5.43
2017-08-08T19:45:19.470Z,5.87
2017-08-08T19:47:48.372Z,4.40
2017-08-08T19:50:17.241Z,4.57
2017-08-08T19:52:46.146Z,4.90
2017-08-08T19:55:15.014Z,5.20
2017-08-08T19:57:43.919Z,5.40
2017-08-08T20:00:12.786Z,5.00
2017-08-08T20:02:41.683Z,4.60
2017-08-08T20:05:10.551Z,4.83
2017-08-08T20:07:39.443Z,4.60
2017-08-08T20:10:08.330Z,5.17
2017-08-08T20:12:37.255Z,4.57
2017-08-08T20:15:06.127Z,4.70
2017-08-08T20:17:35.035Z,5.20
2017-08-08T20:20:03.927Z,5.47
2017-08-08T20:22:32.833Z,4.90
2017-08-08T20:25:01.711Z,5.00
2017-08-08T20:27:30.606Z,5.33
2017-08-08T20:29:59.477Z,5.47
2017-08-08T20:32:28.366Z,5.63
2017-08-08T20:34:57.233Z,4.73
2017-08-08T20:37:26.126Z,4.67
2017-08-08T20:39:54.998Z,4.73
2017-08-08T20:42:23.878Z,5.20
2017-08-08T20:44:52.773Z,4.93
2017-08-08T20:47:21.666Z,5.13
2017-08-08T20:49:50.548Z,5.90
2017-08-08T20:52:19.430Z,5.60
2017-08-08T20:54:48.299Z,4.30
2017-08-08T20:57:17.189Z,5.03
2017-08-08T20:59:46.054Z,4.70
2017-08-08T21:02:14.942Z,4.57
2017-08-08T21:04:43.821Z,5.23
2017-08-08T21:07:12.716Z,5.00
2017-08-08T21:09:41.591Z,4.13
2017-08-08T21:12:10.492Z,3.90
2017-08-08T21:14:39.361Z,4.83
2017-08-08T21:17:08.226Z,4.30
2017-08-08T21:19:37.109Z,4.63
2017-08-08T21:22:05.981Z,4.80
2017-08-08T21:24:34.866Z,4.10
2017-08-08T21:27:03.734Z,4.53
2017-08-08T21:29:32.630Z,4.27
2017-08-08T21:32:01.507Z,4.00
2017-08-08T21:34:30.384Z,4.10
2017-08-08T21:36:59.254Z,4.40
2017-08-08T21:39:28.151Z,4.50
2017-08-08T21:41:57.032Z,4.40
2017-08-08T21:44:25.918Z,4.97
2017-08-08T21:46:54.782Z,4.43
2017-08-08T21:49:23.670Z,4.87
2017-08-08T21:51:52.534Z,4.07
2017-08-08T21:54:21.434Z,4.87
2017-08-08T21:56:50.320Z,6.30
2017-08-08T21:59:19.215Z,5.77
2017-08-08T22:01:48.109Z,5.70
2017-08-08T22:04:16.994Z,5.10
2017-08-08T22:06:45.881Z,4.80
2017-08-08T22:09:14.772Z,4.87
2017-08-08T22:11:43.651Z,5.33
2017-08-08T22:14:12.556Z,4.70
2017-08-08T22:16:41.426Z,4.30
2017-08-08T22:19:10.319Z,5.33
2017-08-08T22:21:39.191Z,5.13
2017-08-08T22:24:08.099Z,4.80
2017-08-08T22:26:36.983Z,4.70
2017-08-08T22:29:05.869Z,5.00
2017-08-08T22:31:34.740Z,5.10
2017-08-08T22:34:03.647Z,5.23
2017-08-08T22:36:32.531Z,5.07
2017-08-08T22:39:01.431Z,5.17
2017-08-08T22:41:30.302Z,4.90
2017-08-08T22:43:59.194Z,4.70
2017-08-08T22:46:28.061Z,4.90
2017-08-08T22:48:56.950Z,5.27
2017-08-08T22:51:25.829Z,5.13
2017-08-08T22:53:54.721Z,5.90
2017-08-08T22:56:23.614Z,5.60
2017-08-08T22:58:52.496Z,5.60
2017-08-08T23:01:21.385Z,6.27
2017-08-08T23:03:50.264Z,5.37
2017-08-08T23:06:19.171Z,6.30
2017-08-08T23:08:48.055Z,5.13
2017-08-08T23:11:16.964Z,6.27
2017-08-08T23:13:45.843Z,6.23
2017-08-08T23:16:14.738Z,5.83
2017-08-08T23:18:43.611Z,6.33
2017-08-08T23:21:12.493Z,6.13
2017-08-08T23:23:41.371Z,5.60
2017-08-08T23:26:10.258Z,6.50
2017-08-08T23:28:39.140Z,6.30
2017-08-08T23:31:08.039Z,6.80
2017-08-08T23:33:36.910Z,6.87
2017-08-08T23:36:05.816Z,6.53
2017-08-08T23:38:34.696Z,6.70
2017-08-08T23:41:03.582Z,7.17
2017-08-08T23:43:32.450Z,6.83
2017-08-08T23:46:01.335Z,6.33
2017-08-08T23:48:30.206Z,7.20
2017-08-08T23:50:59.101Z,6.60
2017-08-08T23:53:27.983Z,6.00
2017-08-08T23:55:56.865Z,6.80
2017-08-08T23:58:25.738Z,6.60
